Terminal Aerodrome Forecast
Issued by NWS St Louis, MO

Current Version | Previous Version | Text Only | Print | Product List | Glossary On
Versions: 1 2 3 4 5 6 7 8 9 10 11 12 13 14 15 16 17 18 19 20 21 22 23 24 25 26 27 28 29 30
000
FTUS43 KLSX 251900 AAA
TAFSTL
TAF AMD
KSTL 251905Z 2519/2624 19006KT 3SM -SHRA SCT025 BKN050
     FM251945 02012KT 5SM -SHRA VCTS OVC020CB
      TEMPO 2520/2522 2SM -SHRA OVC018
     FM252200 02012KT 5SM -RA BR OVC012
     FM260100 01012KT P6SM OVC007
     FM261300 05010KT P6SM BKN035=

USA.gov is the U.S. government's official web portal to all federal, state and local government web resources and services.